Time;durP1;ratioP1;P1;durP2;ratioP2;P2;SDS_P1;SDS_P2;PMS_P1;PMS_P2;Temp;Humidity;BMP_temperature;BMP_pressure;BME280_temperature;BME280_humidity;BME280_pressure;Samples;Min_cycle;Max_cycle;Signal;HPM_P1;HPM_P2
2020/12/17 00:02:01;;;;;;;5.25;4.32;;;10.60;86.40;;;;;;4975457;28;20031;-90
2020/12/17 00:04:27;;;;;;;6.22;4.13;;;10.60;86.40;;;;;;4971536;28;20027;-90
2020/12/17 00:06:54;;;;;;;5.97;4.63;;;10.60;86.40;;;;;;4972458;28;20031;-90
2020/12/17 00:09:20;;;;;;;8.98;6.15;;;10.60;86.40;;;;;;4975284;28;20031;-90
2020/12/17 00:11:46;;;;;;;6.25;4.45;;;10.60;86.40;;;;;;4980373;28;20082;-89
2020/12/17 00:14:11;;;;;;;5.32;4.32;;;10.60;86.40;;;;;;4975720;28;20441;-89
2020/12/17 00:16:37;;;;;;;4.65;4.00;;;10.60;86.50;;;;;;4972593;28;20030;-89
2020/12/17 00:19:04;;;;;;;5.50;4.45;;;10.60;86.50;;;;;;4975360;28;20037;-89
2020/12/17 00:21:30;;;;;;;5.20;3.70;;;10.60;86.60;;;;;;4976596;28;20030;-89
2020/12/17 00:23:56;;;;;;;8.32;5.53;;;10.60;86.60;;;;;;4976202;28;20515;-90
2020/12/17 00:26:25;;;;;;;5.07;3.85;;;10.50;86.50;;;;;;4993032;28;20030;-89
2020/12/17 00:28:51;;;;;;;6.28;4.50;;;10.50;86.60;;;;;;4982220;28;20499;-89
2020/12/17 00:31:17;;;;;;;3.97;3.13;;;10.50;86.70;;;;;;4964479;28;20476;-89
2020/12/17 00:33:42;;;;;;;7.53;4.90;;;10.40;86.70;;;;;;4976048;28;20105;-89
2020/12/17 00:36:08;;;;;;;7.93;5.80;;;10.40;86.80;;;;;;4973433;28;20062;-88
2020/12/17 00:38:34;;;;;;;6.90;5.25;;;10.40;86.80;;;;;;4973888;28;20141;-89
2020/12/17 00:40:59;;;;;;;4.75;3.95;;;10.40;86.90;;;;;;4962353;28;20046;-89
2020/12/17 00:43:25;;;;;;;7.00;5.65;;;10.40;86.90;;;;;;4974893;28;20030;-88
2020/12/17 00:45:50;;;;;;;5.72;4.15;;;10.40;86.80;;;;;;4968675;28;20114;-89
2020/12/17 00:48:16;;;;;;;6.30;5.05;;;10.40;86.80;;;;;;4970985;28;20038;-89
2020/12/17 00:50:43;;;;;;;5.38;4.55;;;10.40;86.70;;;;;;4976063;28;20023;-89
2020/12/17 00:53:09;;;;;;;4.65;3.50;;;10.50;86.80;;;;;;4993037;28;20030;-89
2020/12/17 00:55:34;;;;;;;5.70;4.53;;;10.50;86.70;;;;;;4974861;28;20026;-88
2020/12/17 00:58:00;;;;;;;6.38;5.10;;;10.50;86.70;;;;;;4962615;28;20042;-89
2020/12/17 01:00:25;;;;;;;5.80;4.07;;;10.50;86.60;;;;;;4974555;28;20037;-89
2020/12/17 01:02:51;;;;;;;7.20;5.57;;;10.50;86.60;;;;;;4972754;28;20035;-88
2020/12/17 01:05:16;;;;;;;5.78;4.57;;;10.50;86.50;;;;;;4963359;28;20065;-88
2020/12/17 01:07:42;;;;;;;7.60;5.05;;;10.50;86.50;;;;;;4973815;28;20054;-88
2020/12/17 01:10:07;;;;;;;6.03;4.60;;;10.50;86.50;;;;;;4973617;28;20054;-88
2020/12/17 01:12:33;;;;;;;5.57;4.28;;;10.60;86.50;;;;;;4973982;28;20019;-89
2020/12/17 01:14:59;;;;;;;6.15;3.97;;;10.60;86.40;;;;;;4973201;28;20495;-90
2020/12/17 01:17:24;;;;;;;5.82;4.85;;;10.60;86.40;;;;;;4972404;28;20023;-90
2020/12/17 01:19:50;;;;;;;5.60;4.50;;;10.60;86.30;;;;;;4971296;28;20043;-90
2020/12/17 01:22:16;;;;;;;5.88;4.60;;;10.70;86.30;;;;;;4976190;28;20101;-90
2020/12/17 01:24:43;;;;;;;7.43;5.60;;;10.60;86.30;;;;;;4974827;28;20493;-91
2020/12/17 01:27:09;;;;;;;7.82;4.72;;;10.60;86.20;;;;;;4973385;28;20110;-90
2020/12/17 01:29:34;;;;;;;8.82;6.65;;;10.60;86.30;;;;;;4970460;28;20111;-90
2020/12/17 01:32:00;;;;;;;7.10;5.75;;;10.60;86.10;;;;;;4970940;28;20465;-89
2020/12/17 01:34:26;;;;;;;6.00;4.57;;;10.60;86.00;;;;;;4976422;28;20073;-90
2020/12/17 01:36:56;;;;;;;4.20;3.60;;;10.60;86.10;;;;;;4959222;28;20501;-89
2020/12/17 01:39:25;;;;;;;5.97;4.63;;;10.70;86.10;;;;;;4972922;28;20031;-89
2020/12/17 01:41:51;;;;;;;7.50;5.18;;;10.60;85.90;;;;;;4972762;28;20042;-89
2020/12/17 01:44:17;;;;;;;7.20;4.60;;;10.60;85.80;;;;;;4956111;28;20030;-89
2020/12/17 01:46:43;;;;;;;7.85;5.13;;;10.60;85.60;;;;;;4972249;28;20030;-89
2020/12/17 01:49:10;;;;;;;6.05;5.22;;;10.60;85.70;;;;;;4955255;28;20030;-89
2020/12/17 01:51:37;;;;;;;6.80;5.05;;;10.70;85.50;;;;;;4972726;28;20030;-90
2020/12/17 01:54:03;;;;;;;5.38;4.50;;;10.70;85.50;;;;;;4968625;28;20027;-89
2020/12/17 01:56:29;;;;;;;5.60;4.65;;;10.70;85.30;;;;;;4954499;28;20030;-89
2020/12/17 01:59:00;;;;;;;4.18;3.42;;;10.70;85.30;;;;;;4955466;28;20037;-89
2020/12/17 02:01:30;;;;;;;5.25;3.80;;;10.80;85.30;;;;;;4975429;28;20060;-89
2020/12/17 02:03:57;;;;;;;6.15;3.97;;;10.80;85.20;;;;;;4972550;28;20122;-89
2020/12/17 02:06:24;;;;;;;4.82;4.05;;;10.80;85.10;;;;;;4973106;28;20477;-90
2020/12/17 02:08:52;;;;;;;4.03;3.38;;;10.80;85.10;;;;;;4973231;28;20480;-89
2020/12/17 02:11:18;;;;;;;4.10;3.25;;;10.90;85.20;;;;;;4960869;28;20109;-89
2020/12/17 02:13:46;;;;;;;4.28;3.42;;;10.80;85.10;;;;;;4971007;28;20029;-90
2020/12/17 02:16:12;;;;;;;5.07;3.60;;;10.90;85.10;;;;;;4971584;28;20166;-90
2020/12/17 02:18:38;;;;;;;5.95;4.82;;;10.80;85.00;;;;;;4976962;28;20117;-90
2020/12/17 02:21:03;;;;;;;6.00;4.97;;;10.90;85.10;;;;;;4956079;28;20130;-90
2020/12/17 02:23:29;;;;;;;5.30;3.97;;;10.80;85.00;;;;;;4971909;28;20018;-90
2020/12/17 02:25:55;;;;;;;4.65;3.60;;;10.80;85.10;;;;;;4976513;28;20050;-89
2020/12/17 02:28:22;;;;;;;4.60;3.85;;;10.80;85.10;;;;;;4971451;28;20031;-90
2020/12/17 02:30:48;;;;;;;4.88;3.78;;;10.80;85.10;;;;;;4970425;28;20046;-90
2020/12/17 02:33:14;;;;;;;6.97;4.82;;;10.80;85.10;;;;;;4972290;28;20173;-90
2020/12/17 02:35:40;;;;;;;5.38;4.30;;;10.80;85.10;;;;;;4974386;28;20102;-90
2020/12/17 02:38:06;;;;;;;5.85;4.10;;;10.80;85.10;;;;;;4964015;28;20035;-89
2020/12/17 02:40:33;;;;;;;5.63;4.43;;;10.80;85.20;;;;;;4936727;28;20046;-89
2020/12/17 02:43:00;;;;;;;4.80;3.92;;;10.80;85.10;;;;;;4971232;28;20118;-90
2020/12/17 02:45:25;;;;;;;4.32;3.28;;;10.80;85.10;;;;;;4972251;28;20041;-89
2020/12/17 02:47:51;;;;;;;4.72;3.97;;;10.80;85.20;;;;;;4971933;28;20030;-89
2020/12/17 02:50:17;;;;;;;7.82;5.97;;;10.80;85.20;;;;;;4961854;28;20023;-89
2020/12/17 02:52:43;;;;;;;9.30;4.80;;;10.80;85.10;;;;;;4970614;28;20105;-88
2020/12/17 02:55:10;;;;;;;5.57;4.65;;;10.80;85.10;;;;;;4964513;28;20119;-89
2020/12/17 02:57:35;;;;;;;8.23;4.78;;;10.80;85.10;;;;;;4972738;28;20481;-90
2020/12/17 03:00:05;;;;;;;6.13;4.53;;;10.80;85.80;;;;;;4974530;28;20039;-89
2020/12/17 03:02:30;;;;;;;5.78;4.90;;;10.80;85.20;;;;;;4977658;28;20097;-90
2020/12/17 03:04:56;;;;;;;5.40;4.35;;;10.70;85.20;;;;;;4976112;28;20030;-88
2020/12/17 03:07:22;;;;;;;5.50;4.05;;;10.80;85.30;;;;;;4976199;28;20023;-90
2020/12/17 03:09:48;;;;;;;7.45;4.55;;;10.80;85.30;;;;;;4973406;28;20080;-90
2020/12/17 03:12:14;;;;;;;6.05;4.18;;;10.80;85.30;;;;;;4976665;28;20037;-89
2020/12/17 03:14:39;;;;;;;4.57;3.95;;;10.80;85.30;;;;;;4975735;28;20015;-89
2020/12/17 03:17:05;;;;;;;5.10;3.70;;;10.80;85.30;;;;;;4976023;28;20046;-89
2020/12/17 03:19:31;;;;;;;5.35;3.28;;;10.80;85.30;;;;;;4971408;28;20039;-88
2020/12/17 03:21:57;;;;;;;2.38;2.17;;;10.90;85.40;;;;;;4974937;28;20504;-88
2020/12/17 03:24:22;;;;;;;2.95;2.65;;;10.90;85.40;;;;;;4979625;28;20051;-88
2020/12/17 03:26:49;;;;;;;5.22;3.47;;;10.90;85.40;;;;;;4977691;28;20027;-88
2020/12/17 03:29:15;;;;;;;4.20;3.20;;;10.90;85.30;;;;;;4983130;28;20077;-90
2020/12/17 03:31:40;;;;;;;5.70;5.10;;;10.90;85.30;;;;;;4982139;28;20023;-90
2020/12/17 03:34:06;;;;;;;5.22;4.25;;;10.90;85.30;;;;;;4993682;28;20030;-89
2020/12/17 03:36:31;;;;;;;5.07;3.80;;;10.80;85.20;;;;;;4994640;28;20098;-89
2020/12/17 03:38:58;;;;;;;4.93;4.38;;;10.90;86.10;;;;;;4987267;28;20015;-90
2020/12/17 03:41:24;;;;;;;6.78;4.75;;;10.90;85.30;;;;;;4999464;28;20053;-89
2020/12/17 03:43:49;;;;;;;5.57;3.90;;;10.90;85.20;;;;;;4996651;28;20062;-90
2020/12/17 03:46:15;;;;;;;5.57;4.53;;;10.90;85.20;;;;;;4980024;28;20035;-89
2020/12/17 03:48:40;;;;;;;5.63;4.57;;;10.80;85.30;;;;;;4981693;28;20023;-90
2020/12/17 03:51:06;;;;;;;8.10;4.65;;;10.80;85.30;;;;;;4999067;28;20041;-90
2020/12/17 03:53:32;;;;;;;5.63;4.38;;;10.80;85.30;;;;;;4998478;28;20035;-91
2020/12/17 03:55:57;;;;;;;7.95;5.85;;;10.90;85.30;;;;;;4997247;28;20023;-91
2020/12/17 03:58:23;;;;;;;7.85;6.00;;;10.90;85.30;;;;;;4986392;28;20035;-90
2020/12/17 04:00:48;;;;;;;4.57;3.63;;;10.80;85.20;;;;;;4977615;28;20073;-91
2020/12/17 04:03:14;;;;;;;3.70;2.53;;;10.90;85.30;;;;;;4959860;28;22118;-89
2020/12/17 04:05:39;;;;;;;5.63;4.43;;;10.90;85.40;;;;;;4976870;28;20118;-90
2020/12/17 04:08:05;;;;;;;8.85;5.90;;;10.80;85.30;;;;;;4977696;28;20031;-90
2020/12/17 04:10:31;;;;;;;6.55;5.00;;;10.90;85.50;;;;;;4969141;28;20023;-90
2020/12/17 04:12:56;;;;;;;8.90;6.03;;;10.80;85.40;;;;;;4978164;28;20027;-90
2020/12/17 04:15:22;;;;;;;8.95;5.15;;;10.80;85.50;;;;;;4987743;28;20102;-91
2020/12/17 04:17:48;;;;;;;7.85;5.93;;;10.80;85.70;;;;;;5002491;28;20034;-91
2020/12/17 04:20:13;;;;;;;7.78;6.40;;;10.80;85.80;;;;;;5000255;28;20109;-91
2020/12/17 04:22:39;;;;;;;6.15;4.72;;;10.80;86.00;;;;;;4997234;28;20022;-91
2020/12/17 04:25:04;;;;;;;6.80;5.65;;;10.80;86.00;;;;;;4978568;28;20026;-90
2020/12/17 04:27:30;;;;;;;4.95;4.18;;;10.80;86.10;;;;;;4975461;28;20069;-89
2020/12/17 04:29:55;;;;;;;8.25;5.75;;;10.80;86.10;;;;;;4977986;28;20030;-90
2020/12/17 04:32:21;;;;;;;7.93;5.07;;;10.70;86.20;;;;;;4982400;28;20058;-90
2020/12/17 04:34:47;;;;;;;4.82;4.03;;;10.70;86.40;;;;;;4982775;28;20062;-91
2020/12/17 04:37:12;;;;;;;7.03;5.57;;;10.70;86.50;;;;;;4985115;28;20023;-90
2020/12/17 04:39:38;;;;;;;6.53;5.10;;;10.70;86.70;;;;;;4995257;28;20046;-90
2020/12/17 04:42:05;;;;;;;7.75;6.55;;;10.60;87.00;;;;;;4998996;28;20026;-90
2020/12/17 04:44:31;;;;;;;5.55;3.90;;;10.60;87.20;;;;;;4999236;28;20018;-88
2020/12/17 04:47:03;;;;;;;4.97;3.63;;;10.60;87.30;;;;;;4996428;28;20035;-87
2020/12/17 04:49:49;;;;;;;9.57;6.45;;;10.60;87.30;;;;;;4959786;28;20233;-88
2020/12/17 04:52:15;;;;;;;5.35;4.43;;;10.60;87.60;;;;;;4982649;28;20119;-86
2020/12/17 04:54:41;;;;;;;6.20;5.03;;;10.60;87.80;;;;;;4988345;28;20038;-86
2020/12/17 04:57:12;;;;;;;8.07;5.55;;;10.60;87.90;;;;;;4997579;28;20015;-85
2020/12/17 04:59:44;;;;;;;6.40;4.38;;;10.60;88.20;;;;;;4988498;28;20061;-85
2020/12/17 05:02:10;;;;;;;5.45;4.13;;;10.60;88.20;;;;;;4998894;28;20062;-85
2020/12/17 05:04:38;;;;;;;6.20;4.00;;;10.60;88.20;;;;;;4976030;28;20038;-87
2020/12/17 05:07:09;;;;;;;5.20;4.50;;;10.60;88.20;;;;;;4972943;28;20031;-89
2020/12/17 05:09:36;;;;;;;7.75;4.97;;;10.70;88.20;;;;;;4973258;28;20046;-88
2020/12/17 05:12:02;;;;;;;4.63;3.80;;;10.70;88.20;;;;;;4956155;28;20705;-89
2020/12/17 05:14:29;;;;;;;4.95;3.63;;;10.70;88.30;;;;;;4972785;28;20082;-89
2020/12/17 05:16:59;;;;;;;3.42;2.80;;;10.70;88.30;;;;;;4973921;28;20029;-89
2020/12/17 05:19:26;;;;;;;9.77;6.00;;;10.70;88.40;;;;;;4970001;28;20023;-88
2020/12/17 05:21:53;;;;;;;7.28;6.13;;;10.70;88.50;;;;;;4974153;28;20560;-88
2020/12/17 05:24:21;;;;;;;6.75;5.38;;;10.60;88.70;;;;;;4973318;28;20544;-88
2020/12/17 05:26:49;;;;;;;5.18;3.78;;;10.60;88.90;;;;;;4991195;28;20023;-87
2020/12/17 05:29:19;;;;;;;4.97;4.07;;;10.60;89.00;;;;;;4956655;28;20473;-89
2020/12/17 05:31:48;;;;;;;6.07;4.40;;;10.60;89.20;;;;;;4972954;28;20022;-88
2020/12/17 05:34:15;;;;;;;4.35;3.45;;;10.60;89.00;;;;;;4972864;28;20499;-88
2020/12/17 05:36:41;;;;;;;4.05;3.20;;;10.60;88.90;;;;;;4973610;28;20023;-88
2020/12/17 05:39:16;;;;;;;6.03;4.20;;;10.70;88.90;;;;;;4972694;28;20150;-88
2020/12/17 05:41:43;;;;;;;4.70;2.88;;;10.70;89.60;;;;;;4972681;28;20042;-88
2020/12/17 05:44:20;;;;;;;3.70;3.17;;;10.70;88.90;;;;;;4972566;28;20282;-88
2020/12/17 05:46:49;;;;;;;4.88;3.75;;;10.70;88.90;;;;;;4972778;28;20094;-88
2020/12/17 05:49:33;;;;;;;4.25;3.38;;;10.80;88.90;;;;;;4971337;28;20031;-87
2020/12/17 05:52:22;;;;;;;6.68;5.00;;;10.80;88.90;;;;;;4968226;28;20149;-89
2020/12/17 05:54:53;;;;;;;3.95;3.28;;;10.80;88.90;;;;;;4972333;28;20050;-89
2020/12/17 05:57:19;;;;;;;6.35;4.35;;;10.80;88.90;;;;;;4971769;28;20105;-89
2020/12/17 05:59:59;;;;;;;5.93;4.40;;;10.70;88.90;;;;;;4970837;28;20508;-89
2020/12/17 06:02:26;;;;;;;5.30;4.65;;;10.70;88.90;;;;;;4971908;28;20038;-89
2020/12/17 06:05:21;;;;;;;4.65;3.47;;;10.70;88.90;;;;;;4955651;28;20407;-90
2020/12/17 06:07:51;;;;;;;5.20;4.05;;;10.70;89.00;;;;;;4970835;28;20031;-90
2020/12/17 06:10:34;;;;;;;5.38;3.70;;;10.70;89.00;;;;;;4966333;28;20034;-90
2020/12/17 06:13:01;;;;;;;3.25;2.60;;;10.80;89.10;;;;;;4970997;28;20343;-91
2020/12/17 06:15:33;;;;;;;3.70;3.33;;;10.80;89.00;;;;;;4970548;28;20045;-89
2020/12/17 06:18:00;;;;;;;3.88;2.63;;;10.80;89.00;;;;;;4972550;28;20035;-88
2020/12/17 06:20:31;;;;;;;4.18;3.60;;;10.80;89.00;;;;;;4965490;28;20039;-88
2020/12/17 06:23:02;;;;;;;3.63;3.17;;;10.80;89.00;;;;;;4958223;28;20019;-89
2020/12/17 06:25:30;;;;;;;4.88;3.80;;;10.80;88.90;;;;;;4968749;28;20034;-88
2020/12/17 06:27:57;;;;;;;5.53;4.38;;;10.80;89.00;;;;;;4971831;28;20027;-89
2020/12/17 06:30:30;;;;;;;4.57;4.15;;;10.80;89.00;;;;;;4972475;28;20026;-90
2020/12/17 06:32:58;;;;;;;5.00;4.32;;;10.80;89.00;;;;;;4972471;28;20109;-89
2020/12/17 06:35:40;;;;;;;4.63;3.88;;;10.80;88.90;;;;;;4972500;28;20194;-89
2020/12/17 06:38:08;;;;;;;4.57;4.13;;;10.80;89.10;;;;;;4959898;28;20046;-87
2020/12/17 06:40:35;;;;;;;4.13;3.53;;;10.80;89.10;;;;;;4952624;28;20082;-88
2020/12/17 06:43:03;;;;;;;6.53;5.53;;;10.80;89.10;;;;;;4974879;28;20039;-88
2020/12/17 06:45:33;;;;;;;4.93;4.10;;;10.70;89.10;;;;;;4971914;28;20106;-88
2020/12/17 06:48:20;;;;;;;4.80;4.10;;;10.80;89.20;;;;;;4971222;28;20026;-89
2020/12/17 06:50:47;;;;;;;5.68;4.57;;;10.80;89.20;;;;;;4972849;28;20030;-87
2020/12/17 06:53:14;;;;;;;7.20;6.22;;;10.70;89.10;;;;;;4972685;28;20264;-87
2020/12/17 06:55:46;;;;;;;5.22;4.57;;;10.70;89.10;;;;;;4977519;28;20046;-87
2020/12/17 06:58:24;;;;;;;4.93;4.07;;;10.70;89.10;;;;;;4979592;28;20034;-87
2020/12/17 07:00:54;;;;;;;6.53;5.03;;;10.70;89.20;;;;;;4972169;28;20077;-87
2020/12/17 07:03:44;;;;;;;7.07;5.93;;;10.60;89.10;;;;;;4973870;28;20045;-89
2020/12/17 07:06:18;;;;;;;7.32;5.63;;;10.60;89.10;;;;;;4958368;28;20035;-88
2020/12/17 07:08:47;;;;;;;5.32;4.63;;;10.60;89.20;;;;;;4970586;28;20039;-89
2020/12/17 07:11:43;;;;;;;7.25;6.38;;;10.60;89.20;;;;;;4960183;28;20023;-88
2020/12/17 07:14:24;;;;;;;7.55;6.72;;;10.60;89.20;;;;;;4962991;28;20069;-86
2020/12/17 07:16:55;;;;;;;9.35;7.85;;;10.50;89.10;;;;;;4970165;28;20023;-88
2020/12/17 07:19:42;;;;;;;5.82;5.20;;;10.50;89.10;;;;;;4984966;28;20027;-88
2020/12/17 07:22:14;;;;;;;6.82;5.60;;;10.50;89.10;;;;;;4972363;28;20066;-89
2020/12/17 07:24:48;;;;;;;7.68;6.47;;;10.50;89.20;;;;;;4971594;28;20126;-88
2020/12/17 07:27:31;;;;;;;6.00;5.40;;;10.50;89.10;;;;;;4970011;28;20042;-87
2020/12/17 07:30:11;;;;;;;7.45;6.28;;;10.50;89.10;;;;;;4948121;28;20037;-88
2020/12/17 07:32:44;;;;;;;7.72;5.68;;;10.60;89.10;;;;;;4968538;28;20077;-96
2020/12/17 07:35:10;;;;;;;5.57;4.97;;;10.60;89.00;;;;;;4949515;28;20093;-92
2020/12/17 07:37:59;;;;;;;6.82;5.93;;;10.50;88.90;;;;;;4973024;28;20531;-92
2020/12/17 07:40:36;;;;;;;10.52;9.32;;;10.60;89.00;;;;;;4968403;28;20082;-92
2020/12/17 07:43:14;;;;;;;8.68;7.65;;;10.60;88.90;;;;;;4969316;28;20049;-93
2020/12/17 07:45:46;;;;;;;8.77;7.00;;;10.50;88.90;;;;;;4955346;28;20050;-94
2020/12/17 07:48:34;;;;;;;7.43;6.63;;;10.60;89.00;;;;;;4975211;28;20033;-92
2020/12/17 07:51:03;;;;;;;9.45;7.68;;;10.60;89.00;;;;;;4979350;28;20019;-92
2020/12/17 07:53:37;;;;;;;10.15;9.07;;;10.60;88.90;;;;;;4966844;28;20015;-92
2020/12/17 07:56:04;;;;;;;12.02;10.23;;;10.50;88.80;;;;;;4982739;28;20023;-90
2020/12/17 07:58:30;;;;;;;6.90;5.93;;;10.50;88.80;;;;;;4993217;28;20050;-91
2020/12/17 08:00:57;;;;;;;7.97;6.72;;;10.60;88.90;;;;;;5000905;28;20038;-91
2020/12/17 08:03:23;;;;;;;7.75;6.90;;;10.60;88.80;;;;;;4967210;28;20035;-86
2020/12/17 08:05:53;;;;;;;10.13;8.60;;;10.60;88.80;;;;;;4973031;28;20091;-90
2020/12/17 08:08:20;;;;;;;9.57;8.57;;;10.60;88.80;;;;;;4991589;28;20034;-88
2020/12/17 08:10:47;;;;;;;9.98;8.18;;;10.60;88.80;;;;;;4986696;28;20029;-90
2020/12/17 08:13:15;;;;;;;14.07;11.93;;;10.60;88.90;;;;;;4982586;28;20051;-89
2020/12/17 08:15:41;;;;;;;9.98;8.95;;;10.60;88.90;;;;;;4982997;28;20027;-92
2020/12/17 08:18:07;;;;;;;10.00;8.90;;;10.60;89.00;;;;;;4978389;28;20031;-88
2020/12/17 08:20:36;;;;;;;12.65;10.15;;;10.60;88.90;;;;;;4987777;28;20055;-90
2020/12/17 08:23:02;;;;;;;10.27;9.20;;;10.60;88.90;;;;;;4969862;28;20031;-90
2020/12/17 08:25:29;;;;;;;12.60;10.75;;;10.50;88.90;;;;;;4986035;28;20037;-91
2020/12/17 08:27:55;;;;;;;9.88;8.57;;;10.60;88.90;;;;;;4981631;28;20026;-91
2020/12/17 08:30:22;;;;;;;10.40;9.30;;;10.50;88.90;;;;;;4962211;28;20098;-88
2020/12/17 08:32:55;;;;;;;8.13;7.32;;;10.60;88.90;;;;;;4976712;28;20109;-88
2020/12/17 08:35:25;;;;;;;5.70;5.10;;;10.60;88.90;;;;;;4978854;28;20037;-90
2020/12/17 08:37:56;;;;;;;10.75;9.55;;;10.60;88.80;;;;;;4979134;28;20491;-91
2020/12/17 08:40:27;;;;;;;8.80;7.72;;;10.60;89.40;;;;;;4968668;28;20485;-89
2020/12/17 08:43:13;;;;;;;10.27;9.27;;;10.60;88.80;;;;;;4961491;28;20023;-90
2020/12/17 08:45:41;;;;;;;11.65;10.45;;;10.60;88.80;;;;;;4962302;28;20121;-88
2020/12/17 08:48:15;;;;;;;10.15;8.98;;;10.60;88.80;;;;;;4968805;28;20030;-88
2020/12/17 08:50:44;;;;;;;9.52;8.52;;;10.60;88.90;;;;;;4971543;28;20030;-91
2020/12/17 08:53:21;;;;;;;13.48;12.02;;;10.50;88.80;;;;;;4962627;28;20034;-88
2020/12/17 08:56:05;;;;;;;8.27;6.90;;;10.60;88.80;;;;;;4978236;28;20026;-88
2020/12/17 08:58:31;;;;;;;8.38;7.25;;;10.60;88.90;;;;;;4971803;28;20034;-88
2020/12/17 09:00:57;;;;;;;7.20;5.88;;;10.60;88.90;;;;;;4974805;28;20045;-90
2020/12/17 09:03:25;;;;;;;9.07;7.63;;;10.60;88.80;;;;;;4969028;28;20584;-88
2020/12/17 09:06:04;;;;;;;8.80;7.10;;;10.60;88.80;;;;;;4946762;28;20121;-88
2020/12/17 09:08:30;;;;;;;7.72;6.93;;;10.60;88.80;;;;;;4948330;28;20039;-90
2020/12/17 09:10:57;;;;;;;8.63;7.72;;;10.70;88.80;;;;;;4967658;28;20030;-88
2020/12/17 09:13:23;;;;;;;11.63;10.30;;;10.60;88.80;;;;;;4951566;28;20030;-90
2020/12/17 09:16:01;;;;;;;10.02;8.65;;;10.60;88.80;;;;;;4974593;28;20205;-92
2020/12/17 09:18:28;;;;;;;14.05;12.52;;;10.60;88.80;;;;;;4965427;28;20531;-89
2020/12/17 09:21:12;;;;;;;10.95;9.85;;;10.50;88.70;;;;;;4968683;28;20049;-88
2020/12/17 09:23:39;;;;;;;7.47;5.75;;;10.50;89.60;;;;;;4966422;28;20023;-88
2020/12/17 09:26:14;;;;;;;10.30;8.00;;;10.50;88.80;;;;;;4952128;28;20150;-90
2020/12/17 09:29:03;;;;;;;13.20;9.18;;;10.60;88.90;;;;;;4959131;28;20079;-89
2020/12/17 09:31:32;;;;;;;9.02;7.75;;;10.60;88.90;;;;;;4950668;28;20089;-88
2020/12/17 09:34:08;;;;;;;10.00;7.47;;;10.60;88.80;;;;;;4947693;28;20019;-87
2020/12/17 09:36:36;;;;;;;10.98;9.48;;;10.60;88.80;;;;;;4964446;28;20034;-89
2020/12/17 09:39:14;;;;;;;11.70;9.20;;;10.60;88.80;;;;;;4947690;28;20023;-90
2020/12/17 09:41:54;;;;;;;7.90;6.88;;;10.60;88.70;;;;;;4974314;28;20042;-91
2020/12/17 09:44:26;;;;;;;8.20;6.32;;;10.60;88.70;;;;;;4971032;28;20041;-88
2020/12/17 09:46:52;;;;;;;8.20;6.88;;;10.70;88.70;;;;;;4967531;28;20659;-87
2020/12/17 09:49:44;;;;;;;7.53;6.72;;;10.70;88.50;;;;;;4967573;28;20050;-88
2020/12/17 09:52:11;;;;;;;7.43;5.90;;;10.70;88.50;;;;;;4945031;28;20035;-88
2020/12/17 09:54:42;;;;;;;8.68;6.72;;;10.70;88.40;;;;;;4970319;28;20042;-87
2020/12/17 09:57:10;;;;;;;7.10;5.95;;;10.70;88.40;;;;;;4970706;28;20158;-88
2020/12/17 09:59:37;;;;;;;7.85;6.25;;;10.80;88.20;;;;;;4967787;28;20101;-88
2020/12/17 10:02:05;;;;;;;6.53;4.80;;;10.80;87.90;;;;;;4964098;28;20030;-86
2020/12/17 10:04:31;;;;;;;7.18;5.43;;;10.80;87.90;;;;;;4969418;28;20114;-90
2020/12/17 10:06:58;;;;;;;6.90;4.75;;;10.80;87.80;;;;;;4970432;28;20023;-86
2020/12/17 10:09:25;;;;;;;7.63;5.80;;;10.80;88.30;;;;;;4967033;28;20040;-88
2020/12/17 10:11:52;;;;;;;5.63;4.68;;;10.80;87.60;;;;;;4953744;28;20377;-88
2020/12/17 10:14:19;;;;;;;5.38;4.22;;;10.70;87.40;;;;;;4962345;28;20049;-89
2020/12/17 10:16:45;;;;;;;7.85;5.18;;;10.80;87.50;;;;;;4974823;28;20133;-91
2020/12/17 10:19:22;;;;;;;8.02;5.40;;;10.80;87.30;;;;;;4965052;28;20026;-91
2020/12/17 10:21:48;;;;;;;8.15;5.50;;;10.80;87.30;;;;;;4963062;28;20145;-90
2020/12/17 10:24:14;;;;;;;6.75;5.07;;;10.80;87.20;;;;;;4976282;28;20063;-90
2020/12/17 10:26:39;;;;;;;8.13;5.95;;;10.80;87.10;;;;;;4972687;28;20055;-89
2020/12/17 10:29:05;;;;;;;9.60;5.72;;;10.80;86.80;;;;;;4974530;28;20042;-88
2020/12/17 10:31:30;;;;;;;5.40;4.35;;;10.80;86.70;;;;;;4977948;28;20035;-87
2020/12/17 10:33:56;;;;;;;6.88;4.75;;;10.80;86.80;;;;;;4972153;28;20070;-89
2020/12/17 10:36:23;;;;;;;4.18;3.67;;;10.80;86.70;;;;;;4973728;28;20045;-90
2020/12/17 10:38:52;;;;;;;7.50;4.20;;;10.80;86.60;;;;;;4951376;28;20576;-92
2020/12/17 10:41:28;;;;;;;9.52;6.05;;;10.80;86.40;;;;;;4950943;28;20170;-88
2020/12/17 10:43:53;;;;;;;6.97;4.90;;;10.80;86.20;;;;;;4940353;28;20081;-89
2020/12/17 10:46:20;;;;;;;4.50;3.67;;;10.90;86.30;;;;;;4965147;28;20110;-88
2020/12/17 10:48:46;;;;;;;7.20;4.30;;;10.90;86.20;;;;;;4974683;28;20030;-89
2020/12/17 10:51:16;;;;;;;6.40;4.68;;;10.90;86.10;;;;;;4968058;28;20555;-89
2020/12/17 10:53:42;;;;;;;4.88;4.13;;;10.90;86.00;;;;;;4969223;28;20035;-88
2020/12/17 10:56:09;;;;;;;5.90;3.28;;;10.90;86.00;;;;;;4970977;28;20038;-90
2020/12/17 10:58:36;;;;;;;5.53;2.97;;;11.00;86.00;;;;;;4976071;28;20114;-91
2020/12/17 11:01:04;;;;;;;4.93;3.83;;;11.00;86.00;;;;;;4957118;28;20049;-89
2020/12/17 11:03:29;;;;;;;6.30;4.28;;;11.10;85.90;;;;;;4956648;28;20019;-89
2020/12/17 11:05:56;;;;;;;7.90;4.25;;;11.10;85.80;;;;;;4956108;28;20027;-91
2020/12/17 11:08:23;;;;;;;5.47;3.67;;;11.10;85.60;;;;;;4981907;28;20026;-88
2020/12/17 11:11:01;;;;;;;5.53;4.20;;;11.10;85.60;;;;;;4988908;28;20003;-91
2020/12/17 11:13:27;;;;;;;4.72;3.50;;;11.10;85.50;;;;;;4987288;28;20057;-88
2020/12/17 11:15:53;;;;;;;6.20;4.60;;;11.20;85.60;;;;;;4966778;28;20023;-87
2020/12/17 11:18:20;;;;;;;5.90;3.53;;;11.10;85.20;;;;;;4994826;28;20050;-88
2020/12/17 11:20:46;;;;;;;6.72;4.53;;;11.20;85.90;;;;;;4995789;28;20090;-87
2020/12/17 11:23:12;;;;;;;5.53;3.65;;;11.20;85.20;;;;;;4996692;28;20033;-88
2020/12/17 11:25:39;;;;;;;6.13;3.80;;;11.20;85.10;;;;;;4981037;28;20019;-88
2020/12/17 11:28:07;;;;;;;7.85;4.00;;;11.30;85.20;;;;;;4967306;28;20095;-87
2020/12/17 11:30:37;;;;;;;10.32;5.45;;;11.30;85.10;;;;;;4984505;28;20023;-88
2020/12/17 11:33:03;;;;;;;7.20;4.05;;;11.30;84.40;;;;;;4958228;28;20038;-88
2020/12/17 11:35:29;;;;;;;8.50;4.85;;;11.30;84.20;;;;;;4982217;28;20269;-86
2020/12/17 11:37:56;;;;;;;4.70;3.60;;;11.20;84.10;;;;;;4990725;28;20026;-87
2020/12/17 11:40:23;;;;;;;5.97;3.50;;;11.20;84.10;;;;;;4985342;28;20034;-89
2020/12/17 11:42:53;;;;;;;5.22;3.22;;;11.30;84.30;;;;;;4979551;28;20018;-88
2020/12/17 11:45:19;;;;;;;6.63;3.72;;;11.30;84.40;;;;;;4970720;28;20041;-90
2020/12/17 11:47:45;;;;;;;5.07;3.38;;;11.30;84.40;;;;;;4953342;28;20022;-89
2020/12/17 11:50:11;;;;;;;9.85;4.72;;;11.20;84.30;;;;;;4973809;28;20031;-91
2020/12/17 11:52:37;;;;;;;4.55;3.30;;;11.30;84.40;;;;;;4955286;28;20087;-88
2020/12/17 11:55:06;;;;;;;4.90;3.25;;;11.30;84.40;;;;;;4986733;28;20031;-88
2020/12/17 11:57:36;;;;;;;5.93;3.88;;;11.30;84.30;;;;;;4982341;28;20027;-87
2020/12/17 12:00:06;;;;;;;5.13;3.25;;;11.30;84.30;;;;;;4968236;28;20066;-86
2020/12/17 12:02:32;;;;;;;5.72;3.42;;;11.30;84.30;;;;;;4964240;28;20047;-90
2020/12/17 12:04:58;;;;;;;5.80;4.13;;;11.30;84.30;;;;;;4986534;28;20653;-87
2020/12/17 12:07:25;;;;;;;6.40;3.45;;;11.30;84.20;;;;;;4978367;28;20606;-88
2020/12/17 12:09:52;;;;;;;3.50;2.88;;;11.20;84.20;;;;;;4968154;28;20395;-89
2020/12/17 12:12:18;;;;;;;8.07;4.53;;;11.30;84.30;;;;;;4970079;28;20035;-88
2020/12/17 12:14:45;;;;;;;6.10;4.00;;;11.20;84.10;;;;;;4969222;28;20046;-90
2020/12/17 12:17:14;;;;;;;5.50;3.95;;;11.20;84.10;;;;;;4986638;28;20261;-89
2020/12/17 12:19:40;;;;;;;5.43;3.75;;;11.30;84.10;;;;;;4955486;28;20058;-91
2020/12/17 12:22:05;;;;;;;6.30;4.10;;;11.30;84.10;;;;;;4979606;28;20042;-92
2020/12/17 12:24:31;;;;;;;5.85;3.97;;;11.30;84.00;;;;;;4970848;28;20034;-85
2020/12/17 12:26:59;;;;;;;7.75;4.05;;;11.30;83.90;;;;;;4945504;28;20023;-86
2020/12/17 12:29:26;;;;;;;6.22;4.28;;;11.40;83.90;;;;;;4969198;28;20038;-85
2020/12/17 12:31:52;;;;;;;5.95;4.13;;;11.40;83.70;;;;;;4952934;28;20026;-89
2020/12/17 12:34:18;;;;;;;4.20;3.15;;;11.40;83.60;;;;;;4969178;28;20065;-88
2020/12/17 12:36:55;;;;;;;5.55;3.78;;;11.40;83.60;;;;;;4953851;28;20026;-89
2020/12/17 12:39:21;;;;;;;7.68;4.57;;;11.40;83.50;;;;;;4966569;28;20576;-88
2020/12/17 12:41:48;;;;;;;9.15;4.95;;;11.30;83.30;;;;;;4956151;28;20026;-87
2020/12/17 12:44:14;;;;;;;7.18;3.70;;;11.30;83.30;;;;;;4969869;28;20066;-88
2020/12/17 12:46:42;;;;;;;5.35;3.08;;;11.30;83.40;;;;;;4972081;28;20031;-90
2020/12/17 12:49:09;;;;;;;5.95;3.65;;;11.30;83.40;;;;;;4971600;28;20276;-87
2020/12/17 12:51:36;;;;;;;5.45;3.45;;;11.30;83.30;;;;;;4980406;28;20054;-90
2020/12/17 12:54:02;;;;;;;5.20;3.25;;;11.30;83.30;;;;;;4952258;28;20027;-92